Time;durP1;ratioP1;P1;durP2;ratioP2;P2;SDS_P1;SDS_P2;PMS_P1;PMS_P2;Temp;Humidity;BMP_temperature;BMP_pressure;BME280_temperature;BME280_humidity;BME280_pressure;Samples;Min_cycle;Max_cycle;Signal;HPM_P1;HPM_P2
2023/05/23 00:01:36;;;;;;;53.95;27.42;;;;;;;;;;6217415;23;20415;-77
2023/05/23 00:04:03;;;;;;;52.40;27.52;;;;;;;;;;6218723;23;20358;-77
2023/05/23 00:06:29;;;;;;;45.50;27.33;;;;;;;;;;6242264;23;20370;-77
2023/05/23 00:08:55;;;;;;;47.40;26.02;;;;;;;;;;6243413;23;20480;-77
2023/05/23 00:11:25;;;;;;;48.75;26.45;;;;;;;;;;6241420;23;20369;-77
2023/05/23 00:13:52;;;;;;;51.63;27.40;;;;;;;;;;6242748;23;20489;-77
2023/05/23 00:16:18;;;;;;;46.50;26.60;;;;;;;;;;6216145;23;20366;-77
2023/05/23 00:18:44;;;;;;;43.25;26.83;;;;;;;;;;6242836;23;20443;-77
2023/05/23 00:21:12;;;;;;;49.67;26.98;;;;;;;;;;6241307;23;20372;-77
2023/05/23 00:23:41;;;;;;;44.72;26.77;;;;;;;;;;6242116;23;20743;-77
2023/05/23 00:26:07;;;;;;;42.67;25.42;;;12.80;99.90;;;;;;6242457;23;20366;-77
2023/05/23 00:28:33;;;;;;;36.28;23.67;;;;;;;;;;6243127;23;20370;-78
2023/05/23 00:30:59;;;;;;;36.05;23.10;;;;;;;;;;6215029;23;20370;-77
2023/05/23 00:33:25;;;;;;;33.83;23.00;;;;;;;;;;6242136;23;20370;-78
2023/05/23 00:35:51;;;;;;;33.72;22.40;;;;;;;;;;6242983;23;20398;-78
2023/05/23 00:38:18;;;;;;;37.30;22.38;;;;;;;;;;6242210;23;20401;-78
2023/05/23 00:40:44;;;;;;;34.42;21.73;;;;;;;;;;6242640;23;20362;-78
2023/05/23 00:43:11;;;;;;;29.63;19.90;;;;;;;;;;6242752;23;20396;-78
2023/05/23 00:45:37;;;;;;;31.90;20.10;;;;;;;;;;6242597;23;20372;-78
2023/05/23 00:48:05;;;;;;;36.28;21.80;;;12.80;99.90;;;;;;6215996;23;20369;-78
2023/05/23 00:50:32;;;;;;;42.67;23.33;;;;;;;;;;6243305;22;20354;-78
2023/05/23 00:53:00;;;;;;;43.92;22.80;;;;;;;;;;6216049;23;20373;-79
2023/05/23 00:55:26;;;;;;;41.55;22.30;;;;;;;;;;6217304;23;20373;-77
2023/05/23 00:57:59;;;;;;;40.20;21.38;;;;;;;;;;6217238;23;20386;-76
2023/05/23 01:00:25;;;;;;;42.50;21.30;;;;;;;;;;6216473;23;20365;-77
2023/05/23 01:02:52;;;;;;;36.88;20.58;;;;;;;;;;6241243;23;20393;-77
2023/05/23 01:05:21;;;;;;;38.58;19.25;;;;;;;;;;6241406;23;20362;-77
2023/05/23 01:07:48;;;;;;;38.10;19.08;;;;;;;;;;6242303;23;20383;-77
2023/05/23 01:10:15;;;;;;;37.45;18.50;;;12.30;99.90;;;;;;6217025;23;20692;-77
2023/05/23 01:13:04;;;;;;;39.58;18.58;;;12.60;99.90;;;;;;6216877;23;20369;-77
2023/05/23 01:15:41;;;;;;;37.58;18.55;;;12.30;99.90;;;;;;6241314;23;20449;-77
2023/05/23 01:18:15;;;;;;;41.20;18.30;;;12.50;99.90;;;;;;6242537;23;20385;-77
2023/05/23 01:20:46;;;;;;;39.78;18.95;;;12.60;99.90;;;;;;6241675;23;20423;-77
2023/05/23 01:23:13;;;;;;;45.70;19.30;;;;;;;;;;6244061;23;20369;-78
2023/05/23 01:25:39;;;;;;;41.67;18.48;;;;;;;;;;6244606;23;20440;-77
2023/05/23 01:28:08;;;;;;;46.37;19.83;;;12.10;99.90;;;;;;6244629;23;20423;-77
2023/05/23 01:30:38;;;;;;;43.35;20.08;;;12.40;99.90;;;;;;6244194;23;20370;-77
2023/05/23 01:33:04;;;;;;;39.15;19.55;;;;;;;;;;6244781;23;20445;-77
2023/05/23 01:35:31;;;;;;;44.60;20.45;;;12.20;99.90;;;;;;6243803;23;20365;-78
2023/05/23 01:37:57;;;;;;;40.63;20.43;;;;;;;;;;6243951;23;20455;-77
2023/05/23 01:40:24;;;;;;;40.20;19.60;;;11.80;99.90;;;;;;6218885;23;20365;-77
2023/05/23 01:42:51;;;;;;;43.83;20.10;;;;;;;;;;6243627;23;20366;-77
2023/05/23 01:45:17;;;;;;;44.00;20.08;;;;;;;;;;6219439;23;20404;-77
2023/05/23 01:47:45;;;;;;;47.05;19.48;;;12.10;99.90;;;;;;6244396;23;20370;-76
2023/05/23 01:50:11;;;;;;;43.05;19.55;;;;;;;;;;6243597;23;20450;-76
2023/05/23 01:52:38;;;;;;;40.30;18.92;;;;;;;;;;6244023;23;20361;-76
2023/05/23 01:55:08;;;;;;;47.53;20.15;;;11.80;99.90;;;;;;6242836;23;20370;-78
2023/05/23 01:57:36;;;;;;;40.70;19.08;;;;;;;;;;6219013;23;20389;-78
2023/05/23 02:00:06;;;;;;;39.80;18.48;;;12.10;99.90;;;;;;6242387;23;20365;-76
2023/05/23 02:02:33;;;;;;;37.30;18.90;;;12.20;99.90;;;;;;6218131;23;20370;-77
2023/05/23 02:04:59;;;;;;;34.05;17.60;;;;;;;;;;6243690;22;20362;-77
2023/05/23 02:07:25;;;;;;;39.40;18.33;;;;;;;;;;6218495;23;20401;-76
2023/05/23 02:09:51;;;;;;;38.53;16.92;;;;;;;;;;6241766;23;20704;-77
2023/05/23 02:12:17;;;;;;;36.30;17.42;;;;;;;;;;6243935;23;20455;-76
2023/05/23 02:14:43;;;;;;;35.53;17.00;;;;;;;;;;6242182;23;20373;-77
2023/05/23 02:17:09;;;;;;;36.58;15.50;;;;;;;;;;6243932;23;20393;-77
2023/05/23 02:19:36;;;;;;;36.78;15.80;;;;;;;;;;6218563;23;20484;-76
2023/05/23 02:22:02;;;;;;;36.73;16.13;;;;;;;;;;6243149;23;20373;-76
2023/05/23 02:24:28;;;;;;;34.97;15.80;;;;;;;;;;6242304;23;20700;-77
2023/05/23 02:26:54;;;;;;;32.65;14.80;;;;;;;;;;6242003;23;20424;-77
2023/05/23 02:29:20;;;;;;;40.10;14.87;;;;;;;;;;6243747;23;20584;-77
2023/05/23 02:31:46;;;;;;;35.72;14.20;;;;;;;;;;6217747;23;20397;-75
2023/05/23 02:34:13;;;;;;;31.75;13.43;;;;;;;;;;6243103;23;20366;-77
2023/05/23 02:36:39;;;;;;;28.92;12.65;;;;;;;;;;6218254;23;20398;-77
2023/05/23 02:39:05;;;;;;;28.92;12.25;;;;;;;;;;6193139;23;20369;-77
2023/05/23 02:41:31;;;;;;;29.15;11.27;;;;;;;;;;6241964;23;20376;-77
2023/05/23 02:43:58;;;;;;;28.20;11.47;;;;;;;;;;6243511;23;20832;-78
2023/05/23 02:46:24;;;;;;;29.65;11.15;;;;;;;;;;6217988;23;20361;-75
2023/05/23 02:48:50;;;;;;;24.15;11.35;;;;;;;;;;6243999;23;20366;-76
2023/05/23 02:51:17;;;;;;;24.75;10.68;;;;;;;;;;6243824;23;20879;-77
2023/05/23 02:53:43;;;;;;;29.07;10.40;;;;;;;;;;6242831;23;20839;-75
2023/05/23 02:56:09;;;;;;;30.55;11.20;;;;;;;;;;6242246;23;20431;-76
2023/05/23 02:58:35;;;;;;;27.83;10.93;;;;;;;;;;6243579;23;20884;-77
2023/05/23 03:01:02;;;;;;;27.08;10.45;;;11.60;99.90;;;;;;6241902;23;20398;-78
2023/05/23 03:03:30;;;;;;;28.83;11.40;;;;;;;;;;6244495;23;20863;-77
2023/05/23 03:05:59;;;;;;;23.83;10.45;;;;;;;;;;6243812;23;20406;-77
2023/05/23 03:08:25;;;;;;;27.52;10.63;;;;;;;;;;6244004;23;20436;-77
2023/05/23 03:10:52;;;;;;;25.95;10.32;;;;;;;;;;6217485;23;20370;-76
2023/05/23 03:13:18;;;;;;;25.17;9.88;;;;;;;;;;6242929;23;20369;-76
2023/05/23 03:15:45;;;;;;;25.50;9.40;;;;;;;;;;6217077;23;20365;-77
2023/05/23 03:18:11;;;;;;;27.93;10.73;;;;;;;;;;6243195;23;20842;-76
2023/05/23 03:20:37;;;;;;;26.35;10.27;;;;;;;;;;6242874;23;20362;-76
2023/05/23 03:23:03;;;;;;;27.53;10.73;;;;;;;;;;6243636;23;20392;-76
2023/05/23 03:25:29;;;;;;;25.65;9.60;;;;;;;;;;6218075;23;20389;-76
2023/05/23 03:27:55;;;;;;;23.63;9.68;;;;;;;;;;6243563;23;20370;-76
2023/05/23 03:30:22;;;;;;;24.20;9.85;;;;;;;;;;6242180;23;20436;-76
2023/05/23 03:32:48;;;;;;;24.07;8.87;;;;;;;;;;6243133;23;20370;-76
2023/05/23 03:35:14;;;;;;;23.30;9.70;;;;;;;;;;6244100;23;20369;-76
2023/05/23 03:37:40;;;;;;;23.73;8.70;;;;;;;;;;6243146;23;20468;-76
2023/05/23 03:40:07;;;;;;;23.70;9.25;;;;;;;;;;6243279;23;20428;-76
2023/05/23 03:42:33;;;;;;;26.60;9.07;;;;;;;;;;6242132;23;20473;-76
2023/05/23 03:44:59;;;;;;;32.50;9.20;;;;;;;;;;6191405;23;20379;-75
2023/05/23 03:47:25;;;;;;;22.48;8.32;;;;;;;;;;6242829;23;20370;-75
2023/05/23 03:49:51;;;;;;;21.25;8.27;;;;;;;;;;6242972;23;20403;-76
2023/05/23 03:52:17;;;;;;;25.70;8.47;;;;;;;;;;6242353;23;20405;-76
2023/05/23 03:54:43;;;;;;;25.90;7.82;;;;;;;;;;6244432;23;20380;-76
2023/05/23 03:57:09;;;;;;;22.02;7.93;;;;;;;;;;6218094;23;20474;-76
2023/05/23 03:59:35;;;;;;;22.67;7.78;;;;;;;;;;6192660;23;20434;-76
2023/05/23 04:02:01;;;;;;;21.52;8.18;;;;;;;;;;6242593;23;20381;-77
2023/05/23 04:04:28;;;;;;;26.37;8.47;;;;;;;;;;6241701;23;20362;-76
2023/05/23 04:06:55;;;;;;;20.02;8.45;;;;;;;;;;6242344;23;20874;-76
2023/05/23 04:09:21;;;;;;;22.77;8.30;;;;;;;;;;6218016;23;20973;-76
2023/05/23 04:11:47;;;;;;;23.27;8.40;;;;;;;;;;6215755;23;20370;-74
2023/05/23 04:14:13;;;;;;;16.60;8.82;;;;;;;;;;6218441;23;20370;-76
2023/05/23 04:16:43;;;;;;;26.08;10.23;;;;;;;;;;6242765;23;20389;-75
2023/05/23 04:19:11;;;;;;;22.80;11.00;;;;;;;;;;6217115;23;20372;-76
2023/05/23 04:21:37;;;;;;;24.45;11.35;;;;;;;;;;6242151;23;20366;-76
2023/05/23 04:24:03;;;;;;;27.10;12.38;;;;;;;;;;6241788;23;20393;-76
2023/05/23 04:26:29;;;;;;;30.02;12.80;;;11.50;99.90;;;;;;6242941;23;20366;-76
2023/05/23 04:28:55;;;;;;;25.00;11.45;;;;;;;;;;6217787;23;20366;-76
2023/05/23 04:31:21;;;;;;;26.20;11.15;;;;;;;;;;6241865;23;20366;-76
2023/05/23 04:33:47;;;;;;;24.85;11.02;;;;;;;;;;6242579;23;20866;-76
2023/05/23 04:36:14;;;;;;;25.45;10.65;;;;;;;;;;6242337;23;20389;-75
2023/05/23 04:38:40;;;;;;;27.88;11.98;;;;;;;;;;6241867;23;20417;-76
2023/05/23 04:41:08;;;;;;;23.13;10.20;;;;;;;;;;6242279;23;20366;-76
2023/05/23 04:43:41;;;;;;;28.55;11.77;;;;;;;;;;6243030;23;20411;-76
2023/05/23 04:46:07;;;;;;;26.33;12.30;;;;;;;;;;6243415;23;20373;-76
2023/05/23 04:48:35;;;;;;;23.87;10.27;;;;;;;;;;6218400;23;20929;-77
2023/05/23 04:51:04;;;;;;;31.00;13.98;;;;;;;;;;6242373;23;20401;-77
2023/05/23 04:53:31;;;;;;;26.90;11.27;;;;;;;;;;6216142;23;20374;-76
2023/05/23 04:55:57;;;;;;;34.22;12.75;;;;;;;;;;6242747;23;20377;-76
2023/05/23 04:58:23;;;;;;;27.88;12.25;;;;;;;;;;6242520;23;20394;-77
2023/05/23 05:00:49;;;;;;;24.40;12.13;;;;;;;;;;6213865;23;20362;-76
2023/05/23 05:03:15;;;;;;;25.43;10.80;;;;;;;;;;6239609;23;20498;-75
2023/05/23 05:05:41;;;;;;;23.55;11.13;;;;;;;;;;6241402;23;20366;-75
2023/05/23 05:08:07;;;;;;;21.35;10.25;;;;;;;;;;6241334;23;20847;-76
2023/05/23 05:10:33;;;;;;;19.97;9.40;;;;;;;;;;6240841;23;20424;-76
2023/05/23 05:12:59;;;;;;;20.92;10.85;;;;;;;;;;6213896;23;20381;-76
2023/05/23 05:15:25;;;;;;;22.00;12.02;;;;;;;;;;6214331;23;20381;-77
2023/05/23 05:17:52;;;;;;;16.17;8.50;;;;;;;;;;6241184;23;20556;-76
2023/05/23 05:20:18;;;;;;;17.10;8.43;;;;;;;;;;6241961;22;20353;-74
2023/05/23 05:22:45;;;;;;;18.58;8.32;;;;;;;;;;6242188;23;20939;-76
2023/05/23 05:25:11;;;;;;;20.77;9.70;;;;;;;;;;6241887;23;20385;-76
2023/05/23 05:27:37;;;;;;;21.42;8.63;;;;;;;;;;6241563;23;20762;-77
2023/05/23 05:30:07;;;;;;;21.05;7.75;;;11.30;99.90;;;;;;6241032;23;20377;-75
2023/05/23 05:32:34;;;;;;;22.25;9.57;;;;;;;;;;6240531;23;20370;-74
2023/05/23 05:35:00;;;;;;;21.73;9.60;;;;;;;;;;6238807;23;20374;-76
2023/05/23 05:37:26;;;;;;;21.27;8.50;;;;;;;;;;6241516;23;20401;-77
2023/05/23 05:39:53;;;;;;;18.30;8.77;;;;;;;;;;6242151;23;20366;-77
2023/05/23 05:42:19;;;;;;;19.02;7.90;;;;;;;;;;6242067;23;20369;-77
2023/05/23 05:44:46;;;;;;;18.90;8.38;;;;;;;;;;6241887;23;20373;-79
2023/05/23 05:47:12;;;;;;;18.20;6.65;;;;;;;;;;6242368;23;20834;-78
2023/05/23 05:49:38;;;;;;;19.03;7.17;;;;;;;;;;6216579;23;20457;-77
2023/05/23 05:52:06;;;;;;;16.30;7.28;;;;;;;;;;6240069;23;20377;-77
2023/05/23 05:54:32;;;;;;;15.83;7.17;;;;;;;;;;6242129;23;20444;-78
2023/05/23 05:56:58;;;;;;;17.35;7.38;;;;;;;;;;6242715;23;20385;-75
2023/05/23 05:59:24;;;;;;;23.33;7.22;;;;;;;;;;6241294;23;20370;-78
2023/05/23 06:01:51;;;;;;;16.95;7.35;;;;;;;;;;6240294;23;20366;-78
2023/05/23 06:04:17;;;;;;;19.45;6.10;;;;;;;;;;6241891;23;20369;-79
2023/05/23 06:06:43;;;;;;;17.15;6.65;;;11.20;99.90;;;;;;6241392;23;20374;-78
2023/05/23 06:09:09;;;;;;;17.55;6.88;;;;;;;;;;6219565;23;20376;-78
2023/05/23 06:11:39;;;;;;;11.77;5.33;;;;;;;;;;6218750;23;20370;-78
2023/05/23 06:14:06;;;;;;;13.77;5.93;;;;;;;;;;6239891;23;20441;-79
2023/05/23 06:16:32;;;;;;;14.13;4.75;;;;;;;;;;6244055;23;20423;-78
2023/05/23 06:18:58;;;;;;;18.07;5.50;;;;;;;;;;6241492;23;20393;-78
2023/05/23 06:21:24;;;;;;;15.80;5.78;;;;;;;;;;6238906;23;20437;-78
2023/05/23 06:23:51;;;;;;;18.20;6.53;;;;;;;;;;6238421;23;20366;-77
2023/05/23 06:26:17;;;;;;;18.40;6.78;;;;;;;;;;6239441;23;20378;-77
2023/05/23 06:28:43;;;;;;;19.30;7.63;;;;;;;;;;6216456;23;20982;-78
2023/05/23 06:31:09;;;;;;;17.10;6.03;;;;;;;;;;6242519;23;20392;-78
2023/05/23 06:33:35;;;;;;;19.58;6.07;;;;;;;;;;6242676;23;20370;-78
2023/05/23 06:36:02;;;;;;;18.50;5.57;;;;;;;;;;6244780;23;20403;-77
2023/05/23 06:38:32;;;;;;;22.42;6.00;;;11.20;99.90;;;;;;6216650;23;20390;-78
2023/05/23 06:40:59;;;;;;;20.50;4.65;;;;;;;;;;6243821;23;20412;-78
2023/05/23 06:43:25;;;;;;;17.17;4.63;;;;;;;;;;6243521;23;20653;-77
2023/05/23 06:45:51;;;;;;;19.52;6.07;;;;;;;;;;6217836;23;20373;-78
2023/05/23 06:48:17;;;;;;;20.02;4.72;;;;;;;;;;6241820;23;20373;-77
2023/05/23 06:50:43;;;;;;;19.65;5.00;;;;;;;;;;6243530;23;20391;-75
2023/05/23 06:53:09;;;;;;;22.60;5.00;;;;;;;;;;6242030;23;20366;-77
2023/05/23 06:55:35;;;;;;;21.23;5.13;;;;;;;;;;6242341;23;20373;-77
2023/05/23 06:58:03;;;;;;;18.75;7.25;;;;;;;;;;6217477;23;20931;-77
2023/05/23 07:00:30;;;;;;;23.40;6.83;;;;;;;;;;6218675;23;20392;-76
2023/05/23 07:02:59;;;;;;;23.90;6.60;;;;;;;;;;6243720;23;20370;-75
2023/05/23 07:05:27;;;;;;;18.42;6.10;;;;;;;;;;6239141;23;20369;-76
2023/05/23 07:07:53;;;;;;;18.40;4.75;;;;;;;;;;6239685;23;20389;-76
2023/05/23 07:10:19;;;;;;;15.10;4.38;;;;;;;;;;6241507;23;20436;-76
2023/05/23 07:12:46;;;;;;;16.67;4.15;;;;;;;;;;6217121;23;20366;-75
2023/05/23 07:15:13;;;;;;;17.75;4.53;;;;;;;;;;6241694;23;20511;-74
2023/05/23 07:17:40;;;;;;;14.83;4.40;;;;;;;;;;6240697;23;20428;-74
2023/05/23 07:20:07;;;;;;;19.40;4.97;;;;;;;;;;6242563;23;20739;-74
2023/05/23 07:22:33;;;;;;;23.30;4.45;;;;;;;;;;6243196;23;20362;-75
2023/05/23 07:24:59;;;;;;;17.47;4.43;;;;;;;;;;6240052;23;20381;-74
2023/05/23 07:27:26;;;;;;;19.27;4.30;;;11.90;99.90;;;;;;6245303;23;20445;-74
2023/05/23 07:29:52;;;;;;;14.48;3.97;;;;;;;;;;6242599;23;20377;-73
2023/05/23 07:32:18;;;;;;;15.27;5.18;;;;;;;;;;6243483;23;20398;-73
2023/05/23 07:34:44;;;;;;;18.20;4.53;;;;;;;;;;6239680;23;20428;-73
2023/05/23 07:37:10;;;;;;;22.33;5.45;;;12.00;99.90;;;;;;6240835;23;20851;-73
2023/05/23 07:39:36;;;;;;;16.30;4.63;;;;;;;;;;6216451;23;20405;-73
2023/05/23 07:42:02;;;;;;;20.55;4.95;;;;;;;;;;6240711;23;20397;-73
2023/05/23 07:44:28;;;;;;;18.13;4.20;;;;;;;;;;6239056;23;20376;-73
2023/05/23 07:46:54;;;;;;;22.48;5.22;;;;;;;;;;6241040;23;20366;-73
2023/05/23 07:49:20;;;;;;;18.55;4.78;;;11.90;99.90;;;;;;6216863;23;20392;-73
2023/05/23 07:51:46;;;;;;;18.30;4.43;;;;;;;;;;6242944;23;20398;-73
2023/05/23 07:54:12;;;;;;;19.92;4.82;;;;;;;;;;6242711;23;20401;-74
2023/05/23 07:56:38;;;;;;;20.00;4.38;;;;;;;;;;6242648;23;20428;-74
2023/05/23 07:59:04;;;;;;;20.65;4.00;;;;;;;;;;6240776;23;20883;-74
2023/05/23 08:01:30;;;;;;;20.08;4.50;;;;;;;;;;6240005;23;20839;-74
2023/05/23 08:03:56;;;;;;;18.10;4.53;;;12.60;99.90;;;;;;6242210;23;20840;-74
2023/05/23 08:06:22;;;;;;;16.23;4.20;;;12.70;99.90;;;;;;6242419;23;20460;-74
2023/05/23 08:08:48;;;;;;;16.95;3.90;;;;;;;;;;6243929;23;20362;-80
2023/05/23 08:11:14;;;;;;;16.90;4.22;;;;;;;;;;6244369;23;20420;-77
2023/05/23 08:13:40;;;;;;;21.73;5.20;;;;;;;;;;6242663;23;20373;-77
2023/05/23 08:16:06;;;;;;;19.98;4.28;;;;;;;;;;6242252;23;20451;-79
2023/05/23 08:18:32;;;;;;;21.38;7.43;;;;;;;;;;6216552;23;20473;-82
2023/05/23 08:20:58;;;;;;;16.80;4.47;;;;;;;;;;6192060;23;20376;-78
2023/05/23 08:23:24;;;;;;;16.33;4.53;;;;;;;;;;6242214;23;20751;-78
2023/05/23 08:25:51;;;;;;;18.75;5.15;;;12.60;99.90;;;;;;6215203;23;20735;-79
2023/05/23 08:28:18;;;;;;;19.58;4.68;;;;;;;;;;6240737;23;20848;-74
2023/05/23 08:30:44;;;;;;;17.20;4.30;;;;;;;;;;6214581;23;20370;-74
2023/05/23 08:33:09;;;;;;;16.67;4.20;;;13.00;99.90;;;;;;6191731;23;20449;-75
2023/05/23 08:35:35;;;;;;;17.30;4.53;;;;;;;;;;6189097;23;20760;-76
2023/05/23 08:38:03;;;;;;;16.63;4.30;;;13.60;99.90;;;;;;6239609;23;20906;-76
2023/05/23 08:40:30;;;;;;;14.93;4.85;;;13.70;99.90;;;;;;6240527;23;20424;-76
2023/05/23 08:42:56;;;;;;;12.47;3.80;;;;;;;;;;6241276;23;20362;-76
2023/05/23 08:45:22;;;;;;;17.38;4.35;;;;;;;;;;6240498;23;20362;-74
2023/05/23 08:47:51;;;;;;;16.05;4.38;;;13.60;99.90;;;;;;6216030;23;20423;-77
2023/05/23 08:50:17;;;;;;;12.43;3.97;;;;;;;;;;6239939;23;20411;-75
2023/05/23 08:52:48;;;;;;;15.85;4.10;;;;;;;;;;6240591;23;20374;-76
2023/05/23 08:55:14;;;;;;;15.85;4.30;;;;;;;;;;6240716;23;20693;-76
2023/05/23 08:57:42;;;;;;;19.85;4.63;;;14.10;99.90;;;;;;6240842;23;20477;-77
2023/05/23 09:00:13;;;;;;;18.17;4.07;;;14.40;99.90;;;;;;6241228;23;20396;-75
2023/05/23 09:02:43;;;;;;;18.10;5.22;;;14.10;99.90;;;;;;6240357;23;20947;-76
2023/05/23 09:05:08;;;;;;;14.05;4.07;;;13.80;99.90;;;;;;6240638;23;20366;-76
2023/05/23 09:07:35;;;;;;;16.57;4.53;;;;;;;;;;6211404;23;21177;-76
2023/05/23 09:10:06;;;;;;;16.43;4.43;;;14.00;99.90;;;;;;6239149;23;20440;-76
2023/05/23 09:12:32;;;;;;;17.27;4.32;;;;;;;;;;6238479;23;20913;-77
2023/05/23 09:14:58;;;;;;;15.13;4.30;;;;;;;;;;6240040;23;20370;-75
2023/05/23 09:17:24;;;;;;;19.40;4.20;;;;;;;;;;6240247;23;20461;-76
2023/05/23 09:19:51;;;;;;;16.88;4.53;;;;;;;;;;6240731;23;20839;-76
2023/05/23 09:22:23;;;;;;;15.13;4.43;;;14.10;99.90;;;;;;6214717;23;20366;-76
2023/05/23 09:24:55;;;;;;;17.88;4.22;;;13.90;99.90;;;;;;6238460;23;20389;-75
2023/05/23 09:27:22;;;;;;;17.65;4.28;;;;;;;;;;6239434;23;20858;-75
2023/05/23 09:29:49;;;;;;;15.07;3.45;;;;;;;;;;6214680;23;20755;-75
2023/05/23 09:32:18;;;;;;;17.73;3.83;;;;;;;;;;6240267;23;20384;-75
2023/05/23 09:34:58;;;;;;;20.42;3.95;;;;;;;;;;6240231;23;20448;-75
2023/05/23 09:37:36;;;;;;;21.60;4.15;;;14.50;99.90;;;;;;6239044;23;20397;-76
2023/05/23 09:40:12;;;;;;;15.77;3.70;;;14.50;99.90;;;;;;6238559;23;20365;-75
2023/05/23 09:42:43;;;;;;;14.90;4.03;;;14.60;99.90;;;;;;6241908;23;20380;-75
2023/05/23 09:45:09;;;;;;;16.58;4.10;;;14.80;99.90;;;;;;6217466;23;20728;-76
2023/05/23 09:47:36;;;;;;;13.13;3.35;;;;;;;;;;6243876;23;20370;-76
2023/05/23 09:50:02;;;;;;;15.18;4.47;;;;;;;;;;6239617;23;20377;-76
2023/05/23 09:52:33;;;;;;;15.83;4.13;;;;;;;;;;6240539;23;20684;-76
2023/05/23 09:54:59;;;;;;;13.75;3.85;;;;;;;;;;6239920;23;20392;-76
2023/05/23 09:57:25;;;;;;;15.30;4.13;;;;;;;;;;6240792;23;20389;-76
2023/05/23 09:59:55;;;;;;;19.57;5.57;;;14.50;99.90;;;;;;6244952;23;20365;-75
2023/05/23 10:02:42;;;;;;;18.52;4.55;;;14.30;99.90;;;;;;6241868;23;20399;-76
2023/05/23 10:05:14;;;;;;;17.65;4.70;;;14.10;99.90;;;;;;6219671;23;20436;-76
2023/05/23 10:07:40;;;;;;;18.85;4.20;;;;;;;;;;6243353;23;20382;-76
2023/05/23 10:10:10;;;;;;;13.20;3.72;;;14.30;99.90;;;;;;6217635;23;20374;-75
2023/05/23 10:12:53;;;;;;;16.00;5.32;;;;;;;;;;6243081;23;20376;-75
2023/05/23 10:15:22;;;;;;;16.60;4.10;;;14.30;99.90;;;;;;6220232;23;20420;-75
2023/05/23 10:17:51;;;;;;;14.02;3.95;;;;;;;;;;6243765;23;20414;-75
2023/05/23 10:20:22;;;;;;;16.55;4.05;;;14.20;99.90;;;;;;6242755;23;20835;-76
2023/05/23 10:22:48;;;;;;;17.40;3.97;;;14.20;99.90;;;;;;6243307;23;20373;-75
2023/05/23 10:25:16;;;;;;;17.30;3.65;;;;;;;;;;6215363;23;20693;-75
2023/05/23 10:27:42;;;;;;;12.57;3.90;;;;;;;;;;6243818;23;20812;-75
2023/05/23 10:30:09;;;;;;;18.40;4.22;;;14.60;99.90;;;;;;6242653;23;20372;-75
2023/05/23 10:32:35;;;;;;;16.63;4.60;;;;;;;;;;6243260;23;20401;-76
2023/05/23 10:35:11;;;;;;;17.65;4.88;;;;;;;;;;6243534;23;20370;-75
2023/05/23 10:37:46;;;;;;;13.43;3.40;;;;;;;;;;6216928;23;20940;-76
2023/05/23 10:40:15;;;;;;;15.57;3.95;;;;;;;;;;6240379;23;20369;-75
2023/05/23 10:42:41;;;;;;;17.75;3.85;;;;;;;;;;6241361;23;20432;-75
2023/05/23 10:45:15;;;;;;;12.65;3.38;;;;;;;;;;6241199;23;20840;-76
2023/05/23 10:47:41;;;;;;;10.85;3.72;;;;;;;;;;6243728;23;20365;-76
2023/05/23 10:50:12;;;;;;;11.75;3.78;;;14.10;99.90;;;;;;6237577;23;20370;-76
2023/05/23 10:52:39;;;;;;;12.80;3.50;;;;;;;;;;6242128;23;20378;-75
2023/05/23 10:55:13;;;;;;;15.27;5.97;;;14.20;99.90;;;;;;6241725;23;20508;-74
2023/05/23 10:57:42;;;;;;;19.17;6.00;;;;;;;;;;6241306;23;20705;-75
2023/05/23 11:00:15;;;;;;;14.27;5.32;;;14.30;99.90;;;;;;6217013;23;20394;-75
2023/05/23 11:02:55;;;;;;;15.65;4.30;;;;;;;;;;6217395;23;20362;-75
2023/05/23 11:05:22;;;;;;;16.23;4.13;;;;;;;;;;6242146;23;20447;-76
2023/05/23 11:08:12;;;;;;;17.27;4.13;;;;;;;;;;6243288;23;20384;-75
2023/05/23 11:10:51;;;;;;;18.17;4.30;;;;;;;;;;6242838;23;20382;-75
2023/05/23 11:13:18;;;;;;;16.67;3.75;;;;;;;;;;6243681;23;20369;-75
2023/05/23 11:15:44;;;;;;;12.88;3.53;;;;;;;;;;6241674;23;20376;-75
2023/05/23 11:18:22;;;;;;;12.73;3.40;;;14.00;99.90;;;;;;6243416;23;20393;-77
2023/05/23 11:20:51;;;;;;;15.40;3.95;;;14.30;99.90;;;;;;6243348;23;20397;-75
2023/05/23 11:23:17;;;;;;;15.07;4.45;;;14.20;99.90;;;;;;6218339;23;20366;-76
2023/05/23 11:25:43;;;;;;;13.97;2.97;;;;;;;;;;6242954;23;20386;-75
2023/05/23 11:28:09;;;;;;;15.80;3.27;;;;;;;;;;6218316;23;20514;-75
2023/05/23 11:30:36;;;;;;;14.05;4.00;;;;;;;;;;6242904;23;20448;-76
2023/05/23 11:33:12;;;;;;;11.50;3.78;;;;;;;;;;6242690;23;20731;-75
2023/05/23 11:35:38;;;;;;;15.57;3.38;;;;;;;;;;6243526;23;20910;-76
2023/05/23 11:38:05;;;;;;;14.45;3.83;;;14.60;99.90;;;;;;6243198;23;20755;-75
2023/05/23 11:40:38;;;;;;;12.55;4.82;;;14.50;99.90;;;;;;6243902;23;20373;-76
2023/05/23 11:43:06;;;;;;;14.13;4.00;;;14.40;99.90;;;;;;6242350;23;20361;-76
2023/05/23 11:45:33;;;;;;;15.57;3.97;;;14.30;99.90;;;;;;6242041;23;20414;-75
2023/05/23 11:48:07;;;;;;;14.75;5.45;;;14.20;99.90;;;;;;6218114;23;20397;-76
2023/05/23 11:50:34;;;;;;;15.45;5.35;;;;;;;;;;6242526;23;20370;-76
2023/05/23 11:53:00;;;;;;;15.90;4.82;;;;;;;;;;6218007;23;20747;-76
2023/05/23 11:55:26;;;;;;;14.73;5.10;;;;;;;;;;6217533;23;20449;-76
2023/05/23 11:57:55;;;;;;;17.60;4.15;;;14.50;99.90;;;;;;6242634;23;20951;-76
2023/05/23 12:00:21;;;;;;;14.67;4.10;;;;;;;;;;6241994;23;20370;-76
2023/05/23 12:02:47;;;;;;;16.88;3.97;;;;;;;;;;6241393;23;20423;-76
2023/05/23 12:05:14;;;;;;;14.52;3.95;;;;;;;;;;6240888;23;20362;-76
2023/05/23 12:07:47;;;;;;;11.30;3.08;;;;;;;;;;6242495;23;20396;-76
2023/05/23 12:10:20;;;;;;;16.63;3.60;;;15.10;99.90;;;;;;6242680;23;20376;-75
2023/05/23 12:12:46;;;;;;;13.25;3.22;;;;;;;;;;6240944;23;20370;-75
2023/05/23 12:15:12;;;;;;;11.27;3.43;;;14.70;99.90;;;;;;6241656;23;20453;-76
2023/05/23 12:17:39;;;;;;;12.40;3.23;;;;;;;;;;6216639;23;20899;-75
2023/05/23 12:20:06;;;;;;;12.18;3.38;;;14.80;99.90;;;;;;6240860;23;20362;-76
2023/05/23 12:22:32;;;;;;;12.83;3.23;;;;;;;;;;6216868;23;20412;-76
2023/05/23 12:24:58;;;;;;;12.68;3.30;;;;;;;;;;6216782;23;20382;-77
2023/05/23 12:27:34;;;;;;;11.52;3.33;;;;;;;;;;6242210;23;20473;-76
2023/05/23 12:30:12;;;;;;;14.43;3.30;;;15.00;99.90;;;;;;6241339;23;20392;-77
2023/05/23 12:32:40;;;;;;;13.53;3.10;;;15.40;99.90;;;;;;6216023;23;20374;-76
2023/05/23 12:35:07;;;;;;;10.80;3.00;;;;;;;;;;6192518;23;20450;-77
2023/05/23 12:37:32;;;;;;;12.10;3.67;;;15.40;99.90;;;;;;6241707;23;20884;-77
2023/05/23 12:40:11;;;;;;;8.70;2.80;;;15.50;99.90;;;;;;6217440;23;20373;-76
2023/05/23 12:42:56;;;;;;;9.50;2.70;;;15.10;99.90;;;;;;6244502;22;20469;-76
2023/05/23 12:45:23;;;;;;;11.35;2.53;;;15.30;99.90;;;;;;6242437;23;20370;-76
2023/05/23 12:47:49;;;;;;;10.23;2.80;;;;;;;;;;6189582;23;20370;-76
2023/05/23 12:50:15;;;;;;;10.73;2.90;;;15.40;99.90;;;;;;6241418;23;20366;-76
2023/05/23 12:52:41;;;;;;;12.83;2.97;;;;;;;;;;6238821;23;20365;-76
2023/05/23 12:55:08;;;;;;;13.15;3.47;;;15.40;99.90;;;;;;6216295;23;20366;-75
2023/05/23 12:57:34;;;;;;;18.05;3.72;;;;;;;;;;6240938;23;20392;-76
2023/05/23 13:00:01;;;;;;;13.20;4.00;;;;;;;;;;6242555;23;20362;-76
2023/05/23 13:02:27;;;;;;;14.00;3.60;;;15.20;99.90;;;;;;6215807;23;20444;-77
2023/05/23 13:04:54;;;;;;;10.15;3.00;;;;;;;;;;6241828;23;20780;-77
2023/05/23 13:07:20;;;;;;;11.60;3.20;;;;;;;;;;6239145;23;20452;-77
2023/05/23 13:09:46;;;;;;;12.05;3.35;;;;;;;;;;6241324;23;20996;-76
2023/05/23 13:12:12;;;;;;;11.03;3.17;;;;;;;;;;6214583;23;20708;-76
2023/05/23 13:14:38;;;;;;;9.13;3.58;;;15.70;99.90;;;;;;6215543;23;20370;-77
2023/05/23 13:17:04;;;;;;;15.23;3.97;;;15.50;99.90;;;;;;6240075;23;20456;-78
2023/05/23 13:19:30;;;;;;;12.00;4.00;;;;;;;;;;6191967;23;20446;-77
2023/05/23 13:21:57;;;;;;;12.23;4.00;;;15.70;99.90;;;;;;6239915;23;20369;-77
2023/05/23 13:24:23;;;;;;;11.25;4.38;;;;;;;;;;6215398;23;20438;-76
2023/05/23 13:26:48;;;;;;;16.50;5.90;;;15.30;99.90;;;;;;6242271;23;20453;-76
2023/05/23 13:29:15;;;;;;;9.33;3.13;;;;;;;;;;6240840;23;20738;-77
2023/05/23 13:31:41;;;;;;;13.60;3.20;;;;;;;;;;6241948;23;20372;-76
2023/05/23 13:34:06;;;;;;;10.32;2.78;;;15.80;99.90;;;;;;6240257;23;20370;-76
2023/05/23 13:36:34;;;;;;;12.40;4.30;;;;;;;;;;6240636;23;20373;-77
2023/05/23 13:39:00;;;;;;;9.35;3.92;;;;;;;;;;6215485;23;20392;-76
2023/05/23 13:41:26;;;;;;;15.93;4.95;;;;;;;;;;6240164;23;20373;-76
2023/05/23 13:43:53;;;;;;;13.73;4.78;;;;;;;;;;6241221;23;20358;-77
2023/05/23 13:46:18;;;;;;;14.00;5.20;;;15.90;99.90;;;;;;6240703;23;20366;-76
2023/05/23 13:48:44;;;;;;;13.93;3.70;;;;;;;;;;6241842;23;20665;-76
2023/05/23 13:51:11;;;;;;;12.60;4.88;;;;;;;;;;6216748;23;20373;-77
2023/05/23 13:53:37;;;;;;;11.80;3.63;;;;;;;;;;6265522;22;20365;-76
2023/05/23 13:56:03;;;;;;;13.25;4.25;;;;;;;;;;6211729;23;20366;-76
2023/05/23 13:58:29;;;;;;;17.08;5.85;;;15.30;99.90;;;;;;6238991;23;20439;-76